Catàleg de serveis del Meteocat
Campanya meteocatpedra

Dades de l'estació automàtica Sant Sadurní d'Anoia

?
?
Resum diari 21:30 TU
Dades diàries de l'estació meteorològica
Temperatura mitjana 8.1 °C
Temperatura màxima 14.5 °C 14:03 TU
Temperatura mínima 3.8 °C 3:33 TU
Humitat relativa mitjana 86%
Precipitació acumulada 0.8 mm
Ratxa màxima del vent (2 m) 16.9 km/h - 218º 15:23 TU
Irradiació solar global 5.4 MJ/m2

El tram horari està expressat en Temps Universal (TU). Cal sumar una hora en horari d'hivern i dues en horari d'estiu per passar a l'hora oficial.

Sant Sadurní d'Anoia

Metadades estació meteorol´gica
Municipi Sant Sadurní d'Anoia
Comarca Alt Penedès
Altitud 164 m
Data alta 11.04.2006
Estat actual Operativa
Dades de període
Període
TU
TM
°C
TX
°C
TN
°C
HRM
%
PPT
mm
VVM (2 m)
km/h
DVM (2 m)
graus
VVX (2 m)
km/h
RS
W/m2
00:00 - 00:30 6.3 7.2 5.7 85 0.0 1.8 310 5.8 0
00:30 - 01:00 6.4 6.7 5.4 85 0.0 2.5 336 6.5 0
01:00 - 01:30 5.4 5.7 5.1 89 0.0 2.2 346 5.4 0
01:30 - 02:00 5.1 5.5 4.7 89 0.0 1.4 263 4.0 0
02:00 - 02:30 4.8 5.2 4.4 91 0.0 2.2 297 4.3 0
02:30 - 03:00 4.4 4.7 4.3 93 0.0 2.5 235 5.4 0
03:00 - 03:30 4.4 4.9 3.8 92 0.0 1.4 343 4.3 0
03:30 - 04:00 4.3 5.0 3.8 93 0.0 1.8 340 4.3 0
04:00 - 04:30 5.1 5.3 5.0 91 0.0 0.7 31 3.6 0
04:30 - 05:00 5.0 5.4 4.4 91 0.0 0.7 341 3.2 0
05:00 - 05:30 4.7 5.0 4.4 92 0.0 0.7 9 3.2 0
05:30 - 06:00 4.8 5.0 4.5 93 0.0 1.8 7 5.0 0
06:00 - 06:30 5.2 5.7 4.9 92 0.0 1.8 1 4.3 0
06:30 - 07:00 5.5 5.9 5.2 92 0.0 2.2 352 5.4 2
07:00 - 07:30 5.9 6.3 5.8 93 0.0 1.8 120 4.3 10
07:30 - 08:00 6.4 6.6 6.3 91 0.1 0.7 154 3.6 15
08:00 - 08:30 6.4 6.5 6.2 95 0.4 0.7 336 2.5 21
08:30 - 09:00 6.6 7.1 6.3 95 0.3 0.4 317 2.5 49
09:00 - 09:30 7.2 7.6 7.0 94 0.0 0.7 11 4.7 58
09:30 - 10:00 7.6 7.8 7.4 94 0.0 1.4 344 5.8 75
10:00 - 10:30 7.7 7.8 7.7 95 0.0 2.2 121 9.0 54
10:30 - 11:00 8.0 8.2 7.8 95 0.0 0.7 32 2.5 54
11:00 - 11:30 8.3 8.5 8.1 93 0.0 1.4 326 5.8 101
11:30 - 12:00 9.0 9.5 8.5 87 0.0 1.1 252 6.1 209
12:00 - 12:30 10.7 11.9 9.6 82 0.0 1.4 92 4.7 392
12:30 - 13:00 11.8 12.3 11.2 78 0.0 2.5 114 6.5 389
13:00 - 13:30 13.4 14.1 12.5 71 0.0 3.2 158 11.2 426
13:30 - 14:00 13.6 13.9 13.0 69 0.0 4.0 204 9.4 349
14:00 - 14:30 14.2 14.5 13.9 66 0.0 4.0 184 11.2 328
14:30 - 15:00 14.0 14.2 13.8 67 0.0 7.2 210 16.2 251
15:00 - 15:30 13.9 14.1 13.8 67 0.0 7.6 225 16.9 171
15:30 - 16:00 13.5 13.8 13.2 69 0.0 7.9 231 15.1 93
16:00 - 16:30 12.5 13.1 12.0 73 0.0 3.2 240 9.0 14
16:30 - 17:00 11.6 11.9 11.2 77 0.0 5.4 243 10.8 0
17:00 - 17:30 11.1 11.3 10.9 79 0.0 5.4 247 9.0 0
17:30 - 18:00 10.5 10.9 9.2 80 0.0 3.6 248 8.3 0
18:00 - 18:30 9.5 10.1 8.4 84 0.0 4.0 255 11.9 0
18:30 - 19:00 10.1 10.3 10.0 79 0.0 6.1 246 12.2 0
19:00 - 19:30 9.1 10.3 7.7 81 0.0 4.3 315 8.6 0
19:30 - 20:00 7.7 8.3 7.2 87 0.0 7.6 315 14.0 0
20:00 - 20:30 7.3 7.8 6.8 89 0.0 3.6 324 9.4 0
20:30 - 21:00 6.3 7.3 5.6 92 0.0 1.4 1 5.0 0
21:00 - 21:30 5.8 6.1 5.4 94 0.0 2.2 314 7.6 0
21:30 - 22:00 5.4 6.2 5.0 95 0.0 2.5 321 5.8 0

Les dades en taronja només han passat un control de qualitat automàtic. Resta pendent la seva validació definitiva.